createdAt,value
2019-05-19T00:01:07.055Z,12.52
2019-05-19T00:03:40.449Z,12.52
2019-05-19T00:06:13.919Z,12.50
2019-05-19T00:08:47.291Z,12.50
2019-05-19T00:11:20.706Z,12.47
2019-05-19T00:13:54.098Z,12.47
2019-05-19T00:16:27.519Z,12.44
2019-05-19T00:19:00.910Z,12.39
2019-05-19T00:21:34.320Z,12.39
2019-05-19T00:24:07.781Z,12.37
2019-05-19T00:26:41.190Z,12.34
2019-05-19T00:29:14.597Z,12.35
2019-05-19T00:31:48.021Z,12.41
2019-05-19T00:34:21.467Z,12.47
2019-05-19T00:36:54.865Z,12.42
2019-05-19T00:39:28.261Z,12.42
2019-05-19T00:42:01.657Z,12.38
2019-05-19T00:44:35.071Z,12.30
2019-05-19T00:47:08.569Z,12.24
2019-05-19T00:49:41.989Z,12.22
2019-05-19T00:52:15.552Z,12.23
2019-05-19T00:54:49.227Z,12.23
2019-05-19T00:57:24.187Z,12.31
2019-05-19T00:59:59.182Z,12.23
2019-05-19T01:02:32.596Z,12.18
2019-05-19T01:05:07.344Z,12.19
2019-05-19T01:07:40.850Z,12.20
2019-05-19T01:10:14.577Z,12.22
2019-05-19T01:12:47.995Z,12.18
2019-05-19T01:15:21.585Z,12.18
2019-05-19T01:17:55.012Z,12.14
2019-05-19T01:20:28.483Z,12.08
2019-05-19T01:23:02.647Z,12.03
2019-05-19T01:25:36.195Z,12.05
2019-05-19T01:28:09.612Z,11.98
2019-05-19T01:30:43.019Z,11.93
2019-05-19T01:33:17.493Z,11.92
2019-05-19T01:35:50.912Z,11.85
2019-05-19T01:38:24.310Z,11.82
2019-05-19T01:40:57.710Z,11.75
2019-05-19T01:43:31.149Z,11.74
2019-05-19T01:46:04.782Z,11.79
2019-05-19T01:48:38.368Z,11.67
2019-05-19T01:51:11.756Z,11.57
2019-05-19T01:53:45.188Z,11.53
2019-05-19T01:56:18.583Z,11.44
2019-05-19T01:58:52.025Z,11.38
2019-05-19T02:01:25.430Z,11.35
2019-05-19T02:03:58.852Z,11.34
2019-05-19T02:06:32.249Z,11.29
2019-05-19T02:09:07.119Z,11.19
2019-05-19T02:11:40.551Z,11.16
2019-05-19T02:14:14.054Z,11.12
2019-05-19T02:16:47.447Z,11.08
2019-05-19T02:19:20.935Z,11.05
2019-05-19T02:21:55.951Z,11.11
2019-05-19T02:24:29.418Z,11.11
2019-05-19T02:27:02.833Z,11.20
2019-05-19T02:29:36.242Z,11.18
2019-05-19T02:32:09.650Z,11.16
2019-05-19T02:34:43.061Z,11.15
2019-05-19T02:37:17.261Z,11.15
2019-05-19T02:39:50.765Z,11.19
2019-05-19T02:42:27.354Z,11.20
2019-05-19T02:45:03.527Z,11.29
2019-05-19T02:47:38.579Z,11.32
2019-05-19T02:50:12.836Z,11.33
2019-05-19T02:52:49.272Z,11.40
2019-05-19T02:55:23.355Z,11.42
2019-05-19T02:57:57.675Z,11.48
2019-05-19T03:00:39.811Z,11.50
2019-05-19T03:03:13.244Z,11.44
2019-05-19T03:05:46.677Z,11.47
2019-05-19T03:08:20.121Z,11.46
2019-05-19T03:10:53.547Z,11.48
2019-05-19T03:13:26.945Z,11.48
2019-05-19T03:16:00.375Z,11.38
2019-05-19T03:18:33.813Z,11.28
2019-05-19T03:21:11.035Z,11.21
2019-05-19T03:23:42.477Z,11.23
2019-05-19T03:26:15.869Z,11.23
2019-05-19T03:28:49.284Z,11.18
2019-05-19T03:31:24.362Z,11.16
2019-05-19T03:33:58.523Z,11.14
2019-05-19T03:36:31.956Z,11.12
2019-05-19T03:39:07.108Z,11.10
2019-05-19T03:41:40.851Z,11.10
2019-05-19T03:44:14.239Z,11.17
2019-05-19T03:46:47.657Z,11.18
2019-05-19T03:49:21.069Z,11.24
2019-05-19T03:51:54.513Z,11.25
2019-05-19T03:54:27.938Z,11.34
2019-05-19T03:57:01.357Z,11.38
2019-05-19T03:59:34.759Z,11.40
2019-05-19T04:02:08.184Z,11.44
2019-05-19T04:04:41.579Z,11.51
2019-05-19T04:07:15.011Z,11.53
2019-05-19T04:09:48.672Z,11.45
2019-05-19T04:12:22.096Z,11.46
2019-05-19T04:14:55.500Z,11.51
2019-05-19T04:17:28.918Z,11.55
2019-05-19T04:20:02.435Z,11.66
2019-05-19T04:22:35.862Z,11.66
2019-05-19T04:25:09.273Z,11.69
2019-05-19T04:27:42.728Z,11.75
2019-05-19T04:30:16.922Z,11.80
2019-05-19T04:32:50.320Z,11.82
2019-05-19T04:35:23.757Z,11.85
2019-05-19T04:37:57.307Z,11.84
2019-05-19T04:40:30.741Z,11.78
2019-05-19T04:43:04.473Z,11.81
2019-05-19T04:45:37.892Z,11.80
2019-05-19T04:48:11.303Z,11.78
2019-05-19T04:50:44.698Z,11.71
2019-05-19T04:53:18.132Z,11.66
2019-05-19T04:55:51.592Z,11.68
2019-05-19T04:58:24.971Z,11.76
2019-05-19T05:00:58.399Z,11.82
2019-05-19T05:03:31.802Z,11.80
2019-05-19T05:06:05.240Z,11.88
2019-05-19T05:08:38.647Z,11.92
2019-05-19T05:11:12.085Z,12.00
2019-05-19T05:13:45.486Z,12.06
2019-05-19T05:16:18.905Z,12.17
2019-05-19T05:18:52.389Z,12.18
2019-05-19T05:21:25.828Z,12.15
2019-05-19T05:23:59.233Z,12.12
2019-05-19T05:26:32.702Z,12.21
2019-05-19T05:29:06.119Z,12.23
2019-05-19T05:31:39.544Z,12.30
2019-05-19T05:34:12.957Z,12.37
2019-05-19T05:36:46.450Z,12.30
2019-05-19T05:39:19.868Z,12.35
2019-05-19T05:41:53.286Z,12.54
2019-05-19T05:44:26.691Z,12.64
2019-05-19T05:47:00.137Z,12.70
2019-05-19T05:49:33.558Z,12.91
2019-05-19T05:52:07.012Z,13.04
2019-05-19T05:54:40.396Z,13.04
2019-05-19T05:57:13.825Z,13.47
2019-05-19T05:59:47.202Z,13.76
2019-05-19T06:02:20.636Z,13.49
2019-05-19T06:04:54.035Z,13.44
2019-05-19T06:07:27.468Z,13.49
2019-05-19T06:10:00.934Z,13.17
2019-05-19T06:12:34.361Z,12.99
2019-05-19T06:15:07.917Z,13.16
2019-05-19T06:17:41.354Z,13.16
2019-05-19T06:20:15.493Z,13.36
2019-05-19T06:22:56.524Z,13.14
2019-05-19T06:25:24.161Z,13.15
2019-05-19T06:27:57.627Z,13.59
2019-05-19T06:30:31.039Z,13.45
2019-05-19T06:33:04.728Z,13.53
2019-05-19T06:35:38.109Z,13.49
2019-05-19T06:38:11.558Z,13.81
2019-05-19T06:40:44.965Z,14.12
2019-05-19T06:43:18.402Z,14.42
2019-05-19T06:45:51.818Z,14.03
2019-05-19T06:48:25.596Z,14.32
2019-05-19T06:50:59.008Z,14.32
2019-05-19T06:53:32.426Z,14.25
2019-05-19T06:56:05.824Z,14.15
2019-05-19T06:58:39.259Z,14.85
2019-05-19T07:01:12.656Z,14.85
2019-05-19T07:03:46.162Z,14.98
2019-05-19T07:06:19.570Z,14.78
2019-05-19T07:08:53.002Z,14.99
2019-05-19T07:11:26.489Z,14.98
2019-05-19T07:14:02.873Z,14.55
2019-05-19T07:16:35.050Z,14.66
2019-05-19T07:19:08.473Z,14.44
2019-05-19T07:21:41.894Z,14.78
2019-05-19T07:24:15.332Z,15.31
2019-05-19T07:26:48.737Z,15.10
2019-05-19T07:29:22.152Z,14.76
2019-05-19T07:31:57.977Z,15.52
2019-05-19T07:34:30.741Z,16.03
2019-05-19T07:37:04.234Z,16.36
2019-05-19T07:39:37.638Z,16.20
2019-05-19T07:42:11.056Z,16.05
2019-05-19T07:44:45.369Z,16.15
2019-05-19T07:47:18.854Z,16.19
2019-05-19T07:49:53.062Z,15.94
2019-05-19T07:52:26.482Z,16.02
2019-05-19T07:54:59.922Z,17.08
2019-05-19T07:57:33.333Z,17.85
2019-05-19T08:00:08.779Z,16.21
2019-05-19T08:02:42.304Z,16.59
2019-05-19T08:05:15.920Z,16.65
2019-05-19T08:07:49.352Z,16.53
2019-05-19T08:10:22.763Z,16.79
2019-05-19T08:12:56.191Z,17.04
2019-05-19T08:15:29.616Z,16.70
2019-05-19T08:18:03.100Z,17.41
2019-05-19T08:20:36.510Z,17.55
2019-05-19T08:23:10.816Z,17.55
2019-05-19T08:25:44.266Z,17.05
2019-05-19T08:28:17.702Z,16.81
2019-05-19T08:30:51.138Z,17.66
2019-05-19T08:33:24.589Z,17.63
2019-05-19T08:35:58.020Z,18.05
2019-05-19T08:38:31.532Z,17.47
2019-05-19T08:41:05.068Z,17.17
2019-05-19T08:43:38.442Z,17.05
2019-05-19T08:46:11.923Z,17.61
2019-05-19T08:48:45.417Z,18.18
2019-05-19T08:51:18.844Z,18.06
2019-05-19T08:53:52.220Z,17.94
2019-05-19T08:56:25.660Z,17.89
2019-05-19T08:58:59.091Z,17.68
2019-05-19T09:01:32.538Z,17.77
2019-05-19T09:04:06.023Z,17.68
2019-05-19T09:06:39.486Z,16.69
2019-05-19T09:09:13.039Z,17.73
2019-05-19T09:11:48.000Z,17.97
2019-05-19T09:14:21.559Z,17.58
2019-05-19T09:16:54.956Z,17.47
2019-05-19T09:19:28.387Z,17.76
2019-05-19T09:22:01.791Z,18.05
2019-05-19T09:24:37.241Z,18.05
2019-05-19T09:27:10.360Z,18.28
2019-05-19T09:29:43.763Z,18.51
2019-05-19T09:32:17.273Z,18.29
2019-05-19T09:34:50.666Z,18.16
2019-05-19T09:37:24.078Z,18.40
2019-05-19T09:39:57.507Z,18.51
2019-05-19T09:42:30.946Z,18.75
2019-05-19T09:45:09.180Z,18.16
2019-05-19T09:47:43.453Z,18.42
2019-05-19T09:50:17.200Z,18.53
2019-05-19T09:52:50.601Z,18.65
2019-05-19T09:55:23.999Z,18.88
2019-05-19T09:57:57.491Z,19.31
2019-05-19T10:00:31.320Z,19.14
2019-05-19T10:03:04.863Z,18.96
2019-05-19T10:05:38.412Z,19.04
2019-05-19T10:08:13.562Z,19.63
2019-05-19T10:11:05.184Z,19.75
2019-05-19T10:13:38.608Z,19.19
2019-05-19T10:16:12.027Z,19.51
2019-05-19T10:18:45.745Z,19.56
2019-05-19T10:21:19.188Z,19.15
2019-05-19T10:23:52.593Z,19.44
2019-05-19T10:26:25.989Z,19.77
2019-05-19T10:28:59.424Z,19.92
2019-05-19T10:31:32.891Z,19.75
2019-05-19T10:34:06.315Z,20.12
2019-05-19T10:36:39.759Z,19.71
2019-05-19T10:39:13.179Z,19.31
2019-05-19T10:41:46.581Z,19.53
2019-05-19T10:44:20.076Z,19.74
2019-05-19T10:46:53.598Z,20.61
2019-05-19T10:49:27.053Z,20.00
2019-05-19T10:52:00.472Z,19.98
2019-05-19T10:54:33.869Z,20.61
2019-05-19T10:57:07.286Z,20.28
2019-05-19T10:59:40.751Z,20.67
2019-05-19T11:02:14.161Z,20.89
2019-05-19T11:04:47.588Z,20.83
2019-05-19T11:07:21.017Z,20.63
2019-05-19T11:09:54.415Z,19.97
2019-05-19T11:12:27.910Z,20.05
2019-05-19T11:15:01.319Z,20.04
2019-05-19T11:17:34.821Z,20.94
2019-05-19T11:20:08.294Z,20.97
2019-05-19T11:22:41.702Z,20.46
2019-05-19T11:25:15.358Z,20.53
2019-05-19T11:27:48.796Z,20.73
2019-05-19T11:30:22.225Z,20.99
2019-05-19T11:32:55.637Z,20.75
2019-05-19T11:35:30.080Z,20.83
2019-05-19T11:38:03.522Z,20.44
2019-05-19T11:40:36.915Z,21.12
2019-05-19T11:43:10.314Z,22.09
2019-05-19T11:45:43.705Z,21.77
2019-05-19T11:48:17.180Z,21.44
2019-05-19T11:50:50.577Z,20.75
2019-05-19T11:53:24.033Z,21.42
2019-05-19T11:56:06.322Z,21.79
2019-05-19T11:58:32.674Z,21.23
2019-05-19T12:01:06.138Z,21.10
2019-05-19T12:03:39.580Z,21.53
2019-05-19T12:06:12.979Z,22.47
2019-05-19T12:08:46.414Z,22.81
2019-05-19T12:11:19.815Z,22.61
2019-05-19T12:13:53.220Z,21.94
2019-05-19T12:16:26.615Z,21.98
2019-05-19T12:19:00.067Z,22.13
2019-05-19T12:21:33.445Z,21.56
2019-05-19T12:24:06.860Z,21.78
2019-05-19T12:26:40.266Z,21.24
2019-05-19T12:29:13.661Z,22.08
2019-05-19T12:31:47.083Z,21.96
2019-05-19T12:34:20.510Z,21.78
2019-05-19T12:36:53.914Z,22.23
2019-05-19T12:39:27.382Z,22.44
2019-05-19T12:42:00.793Z,21.92
2019-05-19T12:44:34.219Z,21.36
2019-05-19T12:47:07.686Z,21.80
2019-05-19T12:49:41.107Z,22.51
2019-05-19T12:52:14.518Z,22.26
2019-05-19T12:54:47.949Z,22.15
2019-05-19T12:57:21.522Z,22.63
2019-05-19T12:59:55.232Z,22.24
2019-05-19T13:02:28.625Z,22.16
2019-05-19T13:05:05.434Z,21.95
2019-05-19T13:07:37.155Z,22.37
2019-05-19T13:10:11.114Z,22.55
2019-05-19T13:12:44.505Z,23.28
2019-05-19T13:15:18.059Z,23.61
2019-05-19T13:17:51.937Z,23.52
2019-05-19T13:20:25.420Z,22.79
2019-05-19T13:22:58.873Z,23.15
2019-05-19T13:25:32.278Z,22.67
2019-05-19T13:28:05.674Z,23.12
2019-05-19T13:30:39.101Z,22.99
2019-05-19T13:33:12.493Z,23.27
2019-05-19T13:35:45.898Z,22.87
2019-05-19T13:38:19.285Z,23.62
2019-05-19T13:40:52.717Z,24.21
2019-05-19T13:43:27.270Z,24.21
2019-05-19T13:46:01.282Z,23.70
2019-05-19T13:48:34.674Z,24.08
2019-05-19T13:51:08.970Z,23.88
2019-05-19T13:53:42.369Z,23.49
2019-05-19T13:56:15.788Z,22.94
2019-05-19T13:58:49.183Z,23.09
2019-05-19T14:01:28.695Z,22.87
2019-05-19T14:03:57.732Z,22.95
2019-05-19T14:06:31.174Z,23.02
2019-05-19T14:09:06.202Z,22.72
2019-05-19T14:11:39.707Z,22.62
2019-05-19T14:14:13.132Z,23.28
2019-05-19T14:16:46.535Z,23.22
2019-05-19T14:19:19.939Z,23.55
2019-05-19T14:21:53.372Z,23.50
2019-05-19T14:24:26.793Z,23.14
2019-05-19T14:27:00.273Z,23.50
2019-05-19T14:29:33.737Z,23.53
2019-05-19T14:32:07.163Z,23.31
2019-05-19T14:34:40.613Z,23.96
2019-05-19T14:37:14.030Z,23.58
2019-05-19T14:39:47.450Z,22.99
2019-05-19T14:42:38.740Z,23.16
2019-05-19T14:45:12.753Z,23.78
2019-05-19T14:47:46.185Z,23.56
2019-05-19T14:50:19.842Z,23.37
2019-05-19T14:52:53.255Z,23.50
2019-05-19T14:55:26.652Z,24.05
2019-05-19T14:58:00.146Z,23.35
2019-05-19T15:00:33.559Z,23.23
2019-05-19T15:03:07.007Z,23.95
2019-05-19T15:05:40.429Z,23.78
2019-05-19T15:08:13.870Z,23.57
2019-05-19T15:10:47.353Z,24.30
2019-05-19T15:13:20.795Z,24.01
2019-05-19T15:15:57.823Z,23.79
2019-05-19T15:18:29.378Z,24.06
2019-05-19T15:21:02.849Z,23.77
2019-05-19T15:23:36.255Z,24.52
2019-05-19T15:26:09.766Z,24.71
2019-05-19T15:28:43.198Z,24.07
2019-05-19T15:31:16.625Z,24.01
2019-05-19T15:33:50.037Z,24.10
2019-05-19T15:36:23.464Z,24.64
2019-05-19T15:38:56.856Z,25.88
2019-05-19T15:41:30.313Z,25.87
2019-05-19T15:44:03.870Z,25.75
2019-05-19T15:46:37.298Z,26.48
2019-05-19T15:49:10.740Z,26.39
2019-05-19T15:51:59.384Z,25.95
2019-05-19T15:54:19.333Z,26.67
2019-05-19T15:56:52.925Z,27.16
2019-05-19T15:59:26.352Z,26.66
2019-05-19T16:01:59.755Z,26.43
2019-05-19T16:04:33.258Z,26.06
2019-05-19T16:07:06.690Z,26.93
2019-05-19T16:09:40.124Z,26.11
2019-05-19T16:12:13.530Z,26.88
2019-05-19T16:14:46.937Z,27.41
2019-05-19T16:17:20.392Z,27.58
2019-05-19T16:19:53.824Z,27.23
2019-05-19T16:22:27.311Z,26.71
2019-05-19T16:25:00.719Z,26.51
2019-05-19T16:27:34.176Z,25.98
2019-05-19T16:30:08.825Z,26.64
2019-05-19T16:32:42.303Z,27.22
2019-05-19T16:35:15.855Z,26.04
2019-05-19T16:37:49.310Z,25.37
2019-05-19T16:40:22.774Z,27.08
2019-05-19T16:42:56.193Z,26.69
2019-05-19T16:45:29.581Z,26.50
2019-05-19T16:48:03.047Z,27.11
2019-05-19T16:50:36.397Z,26.73
2019-05-19T16:53:09.855Z,26.32
2019-05-19T16:55:43.236Z,26.36
2019-05-19T16:58:21.254Z,25.85
2019-05-19T17:00:51.839Z,25.23
2019-05-19T17:03:25.294Z,25.89
2019-05-19T17:05:58.702Z,26.40
2019-05-19T17:08:32.349Z,26.54
2019-05-19T17:11:17.647Z,26.66
2019-05-19T17:13:40.908Z,25.88
2019-05-19T17:16:14.303Z,25.97
2019-05-19T17:18:47.771Z,25.25
2019-05-19T17:21:21.227Z,24.48
2019-05-19T17:23:54.867Z,24.90
2019-05-19T17:26:28.311Z,23.89
2019-05-19T17:29:01.700Z,23.93
2019-05-19T17:31:35.104Z,24.02
2019-05-19T17:34:08.583Z,23.15
2019-05-19T17:36:41.953Z,23.76
2019-05-19T17:39:15.422Z,23.70
2019-05-19T17:41:48.794Z,23.47
2019-05-19T17:44:22.229Z,23.27
2019-05-19T17:46:55.615Z,23.01
2019-05-19T17:49:29.073Z,21.98
2019-05-19T17:52:02.609Z,21.43
2019-05-19T17:54:36.086Z,21.68
2019-05-19T17:57:09.761Z,21.15
2019-05-19T17:59:46.347Z,20.78
2019-05-19T18:02:19.759Z,20.38
2019-05-19T18:04:53.375Z,20.28
2019-05-19T18:07:26.765Z,20.22
2019-05-19T18:10:00.197Z,20.30
2019-05-19T18:12:34.493Z,20.39
2019-05-19T18:15:09.123Z,20.34
2019-05-19T18:17:42.526Z,20.34
2019-05-19T18:20:23.826Z,20.31
2019-05-19T18:22:51.257Z,20.34
2019-05-19T18:25:24.700Z,20.26
2019-05-19T18:27:58.093Z,20.32
2019-05-19T18:30:31.638Z,20.23
2019-05-19T18:33:05.039Z,20.14
2019-05-19T18:35:38.454Z,20.14
2019-05-19T18:38:11.842Z,20.11
2019-05-19T18:40:45.268Z,19.91
2019-05-19T18:43:18.743Z,20.03
2019-05-19T18:45:52.182Z,19.87
2019-05-19T18:48:25.687Z,19.81
2019-05-19T18:50:59.098Z,19.73
2019-05-19T18:53:32.551Z,19.43
2019-05-19T18:56:05.950Z,19.19
2019-05-19T18:58:39.371Z,19.13
2019-05-19T19:01:12.843Z,19.05
2019-05-19T19:03:46.315Z,18.76
2019-05-19T19:06:19.752Z,18.66
2019-05-19T19:08:53.157Z,18.65
2019-05-19T19:11:26.581Z,18.71
2019-05-19T19:13:59.988Z,18.75
2019-05-19T19:16:33.429Z,18.61
2019-05-19T19:19:06.837Z,18.46
2019-05-19T19:21:40.275Z,18.20
2019-05-19T19:24:13.679Z,18.12
2019-05-19T19:26:47.112Z,17.99
2019-05-19T19:29:20.575Z,17.87
2019-05-19T19:31:53.950Z,17.74
2019-05-19T19:34:27.354Z,17.81
2019-05-19T19:37:00.804Z,17.82
2019-05-19T19:39:34.234Z,17.80
2019-05-19T19:42:07.705Z,17.80
2019-05-19T19:44:41.194Z,17.81
2019-05-19T19:47:14.911Z,17.76
2019-05-19T19:49:48.295Z,17.77
2019-05-19T19:52:21.735Z,17.72
2019-05-19T19:54:55.206Z,17.74
2019-05-19T19:57:28.712Z,17.74
2019-05-19T20:00:02.204Z,18.07
2019-05-19T20:02:35.694Z,18.08
2019-05-19T20:05:09.227Z,18.05
2019-05-19T20:07:42.692Z,18.02
2019-05-19T20:10:16.134Z,17.92
2019-05-19T20:12:49.535Z,17.81
2019-05-19T20:15:24.548Z,17.76
2019-05-19T20:17:58.139Z,17.62
2019-05-19T20:20:31.570Z,17.52
2019-05-19T20:23:05.040Z,17.61
2019-05-19T20:25:38.524Z,17.61
2019-05-19T20:28:11.951Z,17.48
2019-05-19T20:30:45.536Z,17.48
2019-05-19T20:33:18.946Z,17.39
2019-05-19T20:35:52.439Z,17.35
2019-05-19T20:38:25.849Z,17.24
2019-05-19T20:40:59.243Z,17.19
2019-05-19T20:43:32.684Z,17.13
2019-05-19T20:46:06.114Z,17.13
2019-05-19T20:48:39.494Z,17.07
2019-05-19T20:51:12.921Z,17.07
2019-05-19T20:53:46.349Z,17.00
2019-05-19T20:56:19.773Z,16.92
2019-05-19T20:58:53.209Z,16.66
2019-05-19T21:01:26.682Z,16.66
2019-05-19T21:04:00.070Z,16.57
2019-05-19T21:06:34.233Z,16.39
2019-05-19T21:09:07.735Z,16.20
2019-05-19T21:11:41.179Z,16.10
2019-05-19T21:14:14.613Z,16.05
2019-05-19T21:16:48.071Z,16.04
2019-05-19T21:19:21.481Z,16.01
2019-05-19T21:21:54.889Z,15.99
2019-05-19T21:24:28.300Z,15.94
2019-05-19T21:27:01.728Z,15.89
2019-05-19T21:29:35.112Z,15.86
2019-05-19T21:32:08.539Z,15.88
2019-05-19T21:34:41.932Z,15.88
2019-05-19T21:37:15.347Z,15.90
2019-05-19T21:39:48.748Z,15.91
2019-05-19T21:42:22.172Z,15.91
2019-05-19T21:44:55.549Z,15.88
2019-05-19T21:47:28.966Z,15.79
2019-05-19T21:50:02.669Z,15.67
2019-05-19T21:52:36.061Z,15.54
2019-05-19T21:55:09.541Z,15.42
2019-05-19T21:57:42.983Z,15.33
2019-05-19T22:00:17.744Z,15.28
2019-05-19T22:02:51.168Z,15.22
2019-05-19T22:05:24.578Z,15.15
2019-05-19T22:08:05.593Z,15.19
2019-05-19T22:10:39.082Z,15.14
2019-05-19T22:13:12.522Z,15.06
2019-05-19T22:15:45.937Z,15.10
2019-05-19T22:18:19.341Z,15.22
2019-05-19T22:20:53.356Z,15.20
2019-05-19T22:23:26.747Z,15.15
2019-05-19T22:26:00.152Z,14.98
2019-05-19T22:28:33.613Z,14.93
2019-05-19T22:31:07.034Z,15.09
2019-05-19T22:33:40.455Z,15.09
2019-05-19T22:36:13.842Z,15.00
2019-05-19T22:38:47.269Z,15.06
2019-05-19T22:41:20.657Z,15.08
2019-05-19T22:43:54.070Z,14.94
2019-05-19T22:46:27.463Z,14.86
2019-05-19T22:49:00.866Z,14.79
2019-05-19T22:51:34.272Z,14.73
2019-05-19T22:54:07.691Z,14.68
2019-05-19T22:56:41.085Z,14.58
2019-05-19T22:59:19.729Z,14.55
2019-05-19T23:01:52.132Z,14.55
2019-05-19T23:04:24.787Z,14.53
2019-05-19T23:06:58.196Z,14.55
2019-05-19T23:09:31.620Z,14.50
2019-05-19T23:12:05.150Z,14.44
2019-05-19T23:14:38.529Z,14.40
2019-05-19T23:17:11.906Z,14.38
2019-05-19T23:19:45.314Z,14.34
2019-05-19T23:22:18.710Z,14.35
2019-05-19T23:24:52.187Z,14.45
2019-05-19T23:27:25.824Z,14.34
2019-05-19T23:29:59.245Z,14.25
2019-05-19T23:32:33.536Z,14.13
2019-05-19T23:35:07.896Z,14.08
2019-05-19T23:37:41.295Z,14.14
2019-05-19T23:40:14.943Z,14.15
2019-05-19T23:42:48.699Z,14.07
2019-05-19T23:45:22.117Z,13.96
2019-05-19T23:47:55.531Z,13.95
2019-05-19T23:50:28.944Z,13.81
2019-05-19T23:53:02.342Z,13.72
2019-05-19T23:55:35.755Z,13.66
2019-05-19T23:58:09.263Z,13.54
